Time;durP1;ratioP1;P1;durP2;ratioP2;P2;SDS_P1;SDS_P2;PMS_P1;PMS_P2;Temp;Humidity;BMP_temperature;BMP_pressure;BME280_temperature;BME280_humidity;BME280_pressure;Samples;Min_cycle;Max_cycle;Signal;HPM_P1;HPM_P2
2022/01/18 00:01:12;;;;;;;2.72;1.60;;;6.60;99.90;;;;;;4942655;28;20336;-62
2022/01/18 00:03:37;;;;;;;3.83;1.63;;;6.60;99.90;;;;;;4958765;28;20019;-63
2022/01/18 00:06:03;;;;;;;4.60;1.65;;;6.60;99.90;;;;;;4943326;28;20024;-63
2022/01/18 00:08:29;;;;;;;1.95;1.08;;;6.60;99.90;;;;;;4944874;28;20516;-63
2022/01/18 00:10:54;;;;;;;2.15;1.40;;;6.60;99.90;;;;;;4931430;29;20032;-63
2022/01/18 00:18:35;;;;;;;3.88;1.52;;;6.60;99.90;;;;;;4950478;28;20035;-62
2022/01/18 00:23:36;;;;;;;2.45;1.23;;;6.50;99.90;;;;;;4944039;28;19914;-63
2022/01/18 00:26:03;;;;;;;3.92;2.10;;;6.50;99.90;;;;;;4949127;28;20042;-63
2022/01/18 00:28:30;;;;;;;7.68;2.88;;;6.50;99.90;;;;;;4945216;28;20116;-63
2022/01/18 00:39:10;;;;;;;21.80;2.75;;;6.60;99.90;;;;;;4945599;28;20039;-62
2022/01/18 00:41:38;;;;;;;1.50;1.08;;;6.60;99.90;;;;;;4946983;28;20087;-62
2022/01/18 00:44:04;;;;;;;2.95;1.33;;;6.60;99.90;;;;;;4945677;28;20027;-63
2022/01/18 00:46:30;;;;;;;4.43;1.25;;;6.70;99.90;;;;;;4944409;28;20476;-63
2022/01/18 00:49:00;;;;;;;3.78;1.23;;;6.70;99.90;;;;;;4948038;28;20098;-63
2022/01/18 00:51:25;;;;;;;12.00;1.50;;;6.70;99.90;;;;;;4947242;28;20106;-63
2022/01/18 00:53:51;;;;;;;5.72;1.05;;;6.60;99.90;;;;;;4948797;28;20103;-63
2022/01/18 00:56:26;;;;;;;5.72;2.08;;;6.60;99.90;;;;;;4947613;28;20043;-63
2022/01/18 00:58:53;;;;;;;6.68;2.22;;;6.50;99.90;;;;;;4940319;29;20027;-63
2022/01/18 01:01:21;;;;;;;4.20;1.77;;;6.50;99.90;;;;;;4945938;28;20047;-63
2022/01/18 01:03:48;;;;;;;4.68;1.75;;;6.60;99.90;;;;;;4924957;29;20035;-63
2022/01/18 01:06:14;;;;;;;7.70;1.45;;;6.50;99.90;;;;;;4943977;28;20084;-63
2022/01/18 01:08:40;;;;;;;6.50;1.52;;;6.50;99.90;;;;;;4950621;28;20026;-63
2022/01/18 01:11:08;;;;;;;6.38;1.30;;;6.60;99.90;;;;;;4947477;28;20082;-62
2022/01/18 01:13:35;;;;;;;3.00;1.50;;;6.70;99.90;;;;;;4952140;28;20019;-63
2022/01/18 01:42:53;;;;;;;5.88;2.47;;;6.50;99.90;;;;;;4950715;28;20153;-62
2022/01/18 01:45:15;;;;;;;9.55;2.13;;;6.60;99.90;;;;;;4946187;29;20055;-62
2022/01/18 01:47:40;;;;;;;4.32;1.98;;;6.50;99.90;;;;;;4947414;28;20126;-62
2022/01/18 01:50:17;;;;;;;12.10;1.80;;;6.50;99.90;;;;;;4947346;28;20151;-63
2022/01/18 01:52:43;;;;;;;10.25;2.70;;;6.50;99.90;;;;;;4947024;28;20553;-63
2022/01/18 01:55:09;;;;;;;3.90;1.38;;;6.50;99.90;;;;;;4948591;29;20975;-63
2022/01/18 01:57:35;;;;;;;19.42;2.30;;;6.50;99.90;;;;;;4942097;28;20031;-63
2022/01/18 02:00:11;;;;;;;5.22;1.42;;;6.50;99.90;;;;;;4930711;29;20440;-62
2022/01/18 02:02:37;;;;;;;9.00;1.42;;;6.40;99.90;;;;;;4946512;28;20110;-62
2022/01/18 02:05:05;;;;;;;3.22;1.50;;;6.50;99.90;;;;;;4945753;28;20106;-63
2022/01/18 02:07:31;;;;;;;12.57;1.40;;;6.50;99.90;;;;;;4946700;29;20031;-63
2022/01/18 02:09:57;;;;;;;1.30;0.90;;;6.50;99.90;;;;;;4942843;28;20020;-63
2022/01/18 02:12:23;;;;;;;6.20;1.52;;;6.50;99.90;;;;;;4949703;28;20055;-63
2022/01/18 02:14:55;;;;;;;4.65;1.63;;;6.50;99.90;;;;;;4947073;28;20106;-62
2022/01/18 02:22:52;;;;;;;20.25;1.83;;;6.40;99.90;;;;;;4943837;28;20115;-62
2022/01/18 02:25:17;;;;;;;8.13;1.77;;;6.50;99.90;;;;;;4944812;28;20063;-62
2022/01/18 02:27:43;;;;;;;7.03;1.52;;;6.50;99.90;;;;;;4944301;28;20555;-62
2022/01/18 02:30:09;;;;;;;4.03;1.20;;;6.40;99.90;;;;;;4945857;28;20062;-63
2022/01/18 02:32:35;;;;;;;2.72;1.20;;;6.40;99.90;;;;;;4946014;28;20370;-62
2022/01/18 02:35:02;;;;;;;8.77;1.67;;;6.40;99.90;;;;;;4943961;28;20491;-62
2022/01/18 02:37:27;;;;;;;17.38;3.53;;;6.40;99.90;;;;;;4945932;28;20055;-62
2022/01/18 02:39:53;;;;;;;3.13;0.98;;;6.40;99.90;;;;;;4942829;29;20396;-62
2022/01/18 02:42:27;;;;;;;4.68;1.63;;;6.50;99.90;;;;;;4945615;28;20024;-62
2022/01/18 02:44:53;;;;;;;2.13;1.02;;;6.40;99.90;;;;;;4944777;28;20104;-62
2022/01/18 02:47:23;;;;;;;17.58;1.95;;;6.40;99.90;;;;;;4943504;28;20070;-62
2022/01/18 02:49:49;;;;;;;8.38;1.15;;;6.40;99.90;;;;;;4943861;28;20019;-62
2022/01/18 02:52:16;;;;;;;9.40;1.63;;;6.40;99.90;;;;;;4924695;28;20030;-62
2022/01/18 02:54:42;;;;;;;6.70;2.97;;;6.40;99.90;;;;;;4949378;28;20291;-62
2022/01/18 02:57:14;;;;;;;9.63;1.33;;;6.30;99.90;;;;;;4945737;28;20070;-62
2022/01/18 03:00:05;;;;;;;1.52;1.02;;;6.40;99.90;;;;;;4953669;28;20051;-62
2022/01/18 03:05:16;;;;;;;2.00;1.38;;;6.40;99.90;;;;;;4944982;28;20118;-63
2022/01/18 03:07:43;;;;;;;7.68;1.75;;;6.40;99.90;;;;;;4937501;29;20033;-62
2022/01/18 03:10:10;;;;;;;18.73;1.70;;;6.30;99.90;;;;;;4946139;28;20565;-62
2022/01/18 03:12:36;;;;;;;4.32;2.40;;;6.30;99.90;;;;;;4948453;28;20024;-62
2022/01/18 03:15:03;;;;;;;4.13;1.58;;;6.30;99.90;;;;;;4926955;28;20027;-62
2022/01/18 03:17:29;;;;;;;4.15;1.30;;;6.30;99.90;;;;;;4948112;28;20110;-62
2022/01/18 03:19:55;;;;;;;5.97;1.95;;;6.30;99.90;;;;;;4949031;28;20079;-62
2022/01/18 03:22:20;;;;;;;5.43;1.63;;;6.30;99.90;;;;;;4950129;28;20019;-63
2022/01/18 03:30:09;;;;;;;20.08;3.10;;;6.20;99.90;;;;;;4946902;28;20040;-62
2022/01/18 03:32:36;;;;;;;3.50;1.58;;;6.30;99.90;;;;;;4950817;28;20031;-62
2022/01/18 03:35:04;;;;;;;3.58;1.70;;;6.30;99.90;;;;;;4943412;28;20051;-62
2022/01/18 03:37:29;;;;;;;2.78;1.35;;;6.30;99.90;;;;;;4951056;28;20078;-62
2022/01/18 03:39:55;;;;;;;15.35;2.72;;;6.30;99.90;;;;;;4948735;28;20035;-62
2022/01/18 03:45:02;;;;;;;16.02;2.28;;;6.20;99.90;;;;;;4943382;28;20114;-62
2022/01/18 03:47:29;;;;;;;2.50;1.27;;;6.30;99.90;;;;;;4928082;28;20027;-62
2022/01/18 03:49:54;;;;;;;8.35;2.20;;;6.20;99.90;;;;;;4945471;28;20468;-62
2022/01/18 03:52:20;;;;;;;3.75;1.92;;;6.20;99.90;;;;;;4949427;28;20032;-62
2022/01/18 03:54:47;;;;;;;5.93;2.08;;;6.30;99.90;;;;;;4950685;28;20039;-62
2022/01/18 03:57:14;;;;;;;8.98;2.00;;;6.30;99.90;;;;;;4949750;28;20030;-63
2022/01/18 03:59:40;;;;;;;10.27;2.00;;;6.30;99.90;;;;;;4929725;28;20033;-62
2022/01/18 04:02:07;;;;;;;6.10;2.28;;;6.30;99.90;;;;;;4944693;28;20410;-62
2022/01/18 04:04:33;;;;;;;4.25;1.88;;;6.20;99.90;;;;;;4945530;28;20587;-62
2022/01/18 04:06:59;;;;;;;11.90;2.58;;;6.30;99.90;;;;;;4947771;28;20046;-62
2022/01/18 04:09:25;;;;;;;8.68;1.15;;;6.30;99.90;;;;;;4949659;28;20027;-62
2022/01/18 04:11:52;;;;;;;3.58;1.50;;;6.30;99.90;;;;;;4950739;28;20657;-62
2022/01/18 04:14:17;;;;;;;4.05;1.98;;;6.30;99.90;;;;;;4932891;29;20631;-62
2022/01/18 04:16:58;;;;;;;3.88;1.35;;;6.30;99.90;;;;;;4948730;28;20110;-62
2022/01/18 04:27:38;;;;;;;16.60;2.60;;;6.30;99.90;;;;;;4943757;28;20513;-62
2022/01/18 04:30:06;;;;;;;12.18;2.83;;;6.30;99.90;;;;;;4946740;28;20098;-62
2022/01/18 04:32:31;;;;;;;21.42;2.47;;;6.30;99.90;;;;;;4947420;28;20221;-62
2022/01/18 04:34:57;;;;;;;5.70;1.92;;;6.30;99.90;;;;;;4946326;28;20098;-62
2022/01/18 04:37:23;;;;;;;29.80;3.80;;;6.30;99.90;;;;;;4949659;28;20147;-62
2022/01/18 04:39:49;;;;;;;3.33;1.00;;;6.20;99.90;;;;;;4949937;28;20106;-62
2022/01/18 04:42:35;;;;;;;4.40;1.73;;;6.30;99.90;;;;;;4945702;28;20362;-62
2022/01/18 04:50:29;;;;;;;9.18;1.95;;;6.20;99.90;;;;;;4946523;28;20030;-62
2022/01/18 04:52:55;;;;;;;3.42;2.28;;;6.30;99.90;;;;;;4949001;28;20019;-62
2022/01/18 04:55:20;;;;;;;3.25;1.25;;;6.20;99.90;;;;;;4947595;28;20510;-62
2022/01/18 04:57:52;;;;;;;3.28;1.77;;;6.20;99.90;;;;;;4947600;28;20053;-62
2022/01/18 05:00:19;;;;;;;19.85;1.75;;;6.20;99.90;;;;;;4946410;28;20043;-62
2022/01/18 05:02:47;;;;;;;10.35;1.73;;;6.30;99.90;;;;;;4948464;28;20027;-62
2022/01/18 05:05:22;;;;;;;4.18;1.65;;;6.30;99.90;;;;;;4952659;28;20034;-62
2022/01/18 05:07:48;;;;;;;2.58;1.52;;;6.20;99.90;;;;;;4942344;28;20150;-62
2022/01/18 05:10:16;;;;;;;14.38;2.10;;;6.30;99.90;;;;;;4947187;28;20019;-62
2022/01/18 05:12:46;;;;;;;12.63;1.98;;;6.30;99.90;;;;;;4949128;28;20027;-62
2022/01/18 05:18:58;;;;;;;2.10;1.30;;;6.30;99.90;;;;;;4940899;28;19919;-62
2022/01/18 05:23:40;;;;;;;15.10;1.60;;;6.30;99.90;;;;;;4943012;28;20045;-62
2022/01/18 05:26:05;;;;;;;9.70;1.63;;;6.30;99.90;;;;;;4923388;28;20031;-62
2022/01/18 05:28:31;;;;;;;2.83;1.40;;;6.30;99.90;;;;;;4930242;29;20047;-63
2022/01/18 05:30:57;;;;;;;1.48;1.08;;;6.30;99.90;;;;;;4952796;28;20035;-62
2022/01/18 05:33:23;;;;;;;14.40;2.35;;;6.30;99.90;;;;;;4959667;28;20426;-62
2022/01/18 05:35:49;;;;;;;9.55;1.98;;;6.20;99.90;;;;;;4946936;28;20019;-62
2022/01/18 05:38:15;;;;;;;3.47;1.75;;;6.20;99.90;;;;;;4960904;28;20114;-62
2022/01/18 05:40:40;;;;;;;3.83;1.30;;;6.20;99.90;;;;;;4957553;28;20095;-62
2022/01/18 05:43:06;;;;;;;4.90;1.50;;;6.20;99.90;;;;;;4959449;28;20018;-62
2022/01/18 05:45:32;;;;;;;3.70;1.83;;;6.20;99.90;;;;;;4959465;28;20042;-62
2022/01/18 05:47:58;;;;;;;8.27;2.63;;;6.30;99.90;;;;;;4958125;28;20036;-62
2022/01/18 05:50:23;;;;;;;7.32;1.95;;;6.30;99.90;;;;;;4958154;28;20502;-63
2022/01/18 05:52:49;;;;;;;6.90;2.05;;;6.40;99.90;;;;;;4959412;28;20046;-62
2022/01/18 05:55:15;;;;;;;3.97;1.65;;;6.40;99.90;;;;;;4957324;28;20039;-63
2022/01/18 05:57:41;;;;;;;4.22;1.88;;;6.40;99.90;;;;;;4955800;28;20055;-62
2022/01/18 06:00:11;;;;;;;2.60;0.93;;;6.40;99.90;;;;;;4963927;28;20619;-62
2022/01/18 06:02:44;;;;;;;2.10;1.63;;;6.30;99.90;;;;;;4961880;28;20467;-62
2022/01/18 06:07:56;;;;;;;12.18;2.63;;;6.30;99.90;;;;;;4944828;28;20090;-63
2022/01/18 06:10:22;;;;;;;8.82;2.60;;;6.20;99.90;;;;;;4927935;28;20024;-63
2022/01/18 06:12:48;;;;;;;4.65;2.53;;;6.20;99.90;;;;;;4933698;29;20444;-62
2022/01/18 06:15:14;;;;;;;7.85;3.90;;;6.20;99.90;;;;;;4941113;28;20027;-62
2022/01/18 06:17:39;;;;;;;8.40;3.83;;;6.20;99.90;;;;;;4952671;28;20034;-63
2022/01/18 06:20:07;;;;;;;9.25;3.33;;;6.20;99.90;;;;;;4946509;28;20385;-62
2022/01/18 06:22:33;;;;;;;7.13;3.17;;;6.20;99.90;;;;;;4938351;28;20037;-62
2022/01/18 06:24:59;;;;;;;22.42;4.03;;;6.20;99.90;;;;;;4949133;28;20035;-63
2022/01/18 06:27:25;;;;;;;8.15;3.60;;;6.20;99.90;;;;;;4943288;28;20051;-63
2022/01/18 06:29:52;;;;;;;4.28;1.92;;;6.20;99.90;;;;;;4954258;28;20031;-63
2022/01/18 06:32:17;;;;;;;6.78;2.60;;;6.30;99.90;;;;;;4948486;28;20020;-64
2022/01/18 06:34:43;;;;;;;12.73;2.97;;;6.20;99.90;;;;;;4960702;28;20034;-63
2022/01/18 06:37:10;;;;;;;13.18;2.00;;;6.20;99.90;;;;;;4956621;28;20027;-64
2022/01/18 06:39:36;;;;;;;6.57;2.60;;;6.20;99.90;;;;;;4952500;28;20042;-63
2022/01/18 06:42:01;;;;;;;11.00;3.35;;;6.30;99.90;;;;;;4948789;28;20027;-63
2022/01/18 06:44:27;;;;;;;8.57;3.15;;;6.20;99.90;;;;;;4944899;28;20074;-63
2022/01/18 06:46:53;;;;;;;32.42;2.47;;;6.30;99.90;;;;;;4956252;28;20022;-63
2022/01/18 06:49:20;;;;;;;8.23;3.15;;;6.30;99.90;;;;;;4958345;28;20066;-63
2022/01/18 06:51:45;;;;;;;14.85;3.25;;;6.30;99.90;;;;;;4966923;28;20110;-64
2022/01/18 06:54:15;;;;;;;8.98;3.25;;;6.30;99.90;;;;;;4961713;28;20150;-63
2022/01/18 06:56:44;;;;;;;15.32;3.47;;;6.30;99.90;;;;;;4962991;28;20101;-63
2022/01/18 06:59:10;;;;;;;5.50;2.45;;;6.30;99.90;;;;;;4962511;28;20387;-64
2022/01/18 07:01:36;;;;;;;4.55;2.05;;;6.30;99.90;;;;;;4952004;28;20027;-63
2022/01/18 07:04:01;;;;;;;11.13;3.08;;;6.30;99.90;;;;;;4961536;28;20031;-63
2022/01/18 07:06:27;;;;;;;10.90;3.33;;;6.30;99.90;;;;;;4957493;28;20094;-63
2022/01/18 07:08:53;;;;;;;15.20;3.28;;;6.30;99.90;;;;;;4944472;28;20030;-63
2022/01/18 07:11:20;;;;;;;11.88;2.55;;;6.30;99.90;;;;;;4955002;28;20472;-63
2022/01/18 07:13:45;;;;;;;9.23;3.72;;;6.30;99.90;;;;;;4961823;28;20034;-63
2022/01/18 07:16:11;;;;;;;15.23;4.00;;;6.30;99.90;;;;;;4940980;28;20384;-63
2022/01/18 07:18:37;;;;;;;12.73;3.38;;;6.30;99.90;;;;;;4943336;28;20024;-64
2022/01/18 07:21:03;;;;;;;9.05;3.17;;;6.30;99.90;;;;;;4932406;28;20103;-63
2022/01/18 07:23:29;;;;;;;12.10;4.18;;;6.30;99.90;;;;;;4942739;28;20142;-63
2022/01/18 07:25:54;;;;;;;19.92;5.30;;;6.30;99.90;;;;;;4943980;28;20038;-63
2022/01/18 07:28:20;;;;;;;10.45;3.28;;;6.30;99.90;;;;;;4951553;28;20078;-63
2022/01/18 07:30:47;;;;;;;7.82;3.13;;;6.30;99.90;;;;;;4946477;28;20028;-63
2022/01/18 07:33:14;;;;;;;7.85;2.58;;;6.30;99.90;;;;;;4952802;28;20571;-63
2022/01/18 07:35:40;;;;;;;21.83;3.15;;;6.30;99.90;;;;;;4949701;28;20034;-63
2022/01/18 07:38:07;;;;;;;11.77;3.55;;;6.40;99.90;;;;;;4941472;28;20035;-63
2022/01/18 07:40:33;;;;;;;11.27;3.22;;;6.40;99.90;;;;;;4952314;28;20031;-63
2022/01/18 07:43:01;;;;;;;7.72;3.25;;;6.40;99.90;;;;;;4954358;28;20031;-63
2022/01/18 07:45:30;;;;;;;7.28;3.28;;;6.40;99.90;;;;;;4957004;28;20362;-63
2022/01/18 07:47:56;;;;;;;17.48;4.05;;;6.40;99.90;;;;;;4947969;28;20040;-63
2022/01/18 07:50:22;;;;;;;8.02;3.08;;;6.40;99.90;;;;;;4949807;28;20510;-63
2022/01/18 07:52:47;;;;;;;10.90;2.95;;;6.40;99.90;;;;;;4952605;28;20027;-63
2022/01/18 07:55:13;;;;;;;14.43;5.28;;;6.50;99.90;;;;;;4954064;28;20035;-63
2022/01/18 07:57:42;;;;;;;9.95;2.97;;;6.50;99.90;;;;;;4951795;28;20023;-63
2022/01/18 08:00:17;;;;;;;10.63;3.15;;;6.50;99.90;;;;;;4947106;28;20504;-63
2022/01/18 08:02:44;;;;;;;9.93;3.67;;;6.50;99.90;;;;;;4926348;29;20036;-63
2022/01/18 08:05:11;;;;;;;10.45;4.18;;;6.50;99.90;;;;;;4950872;28;20028;-63
2022/01/18 08:07:37;;;;;;;12.38;3.50;;;6.50;99.90;;;;;;4943735;28;20030;-63
2022/01/18 08:10:06;;;;;;;10.70;3.83;;;6.50;99.90;;;;;;4945025;28;20034;-63
2022/01/18 08:12:32;;;;;;;6.13;2.55;;;6.60;99.90;;;;;;4934429;29;20047;-63
2022/01/18 08:15:03;;;;;;;18.85;5.03;;;6.60;99.90;;;;;;4953814;28;20085;-63
2022/01/18 08:17:30;;;;;;;18.55;4.32;;;6.60;99.90;;;;;;4947199;28;20365;-63
2022/01/18 08:19:55;;;;;;;19.90;5.90;;;6.50;99.90;;;;;;4948844;28;20049;-63
2022/01/18 08:22:21;;;;;;;8.50;3.25;;;6.60;99.90;;;;;;4950621;28;20102;-63
2022/01/18 08:24:47;;;;;;;13.32;4.47;;;6.60;99.90;;;;;;4951399;28;20097;-63
2022/01/18 08:27:13;;;;;;;11.98;3.83;;;6.70;99.90;;;;;;4948519;28;20118;-63
2022/01/18 08:29:38;;;;;;;17.50;3.47;;;6.70;99.90;;;;;;4950843;28;20388;-63
2022/01/18 08:32:06;;;;;;;13.05;4.47;;;6.70;99.90;;;;;;4952320;28;20066;-63
2022/01/18 08:34:32;;;;;;;37.95;3.65;;;6.80;99.90;;;;;;4950207;28;20031;-63
2022/01/18 08:36:57;;;;;;;5.75;2.83;;;6.70;99.90;;;;;;4947753;28;20023;-63
2022/01/18 08:39:23;;;;;;;17.60;3.50;;;6.70;99.90;;;;;;4947842;29;20023;-63
2022/01/18 08:41:49;;;;;;;15.98;3.38;;;6.80;99.90;;;;;;4945209;28;20031;-63
2022/01/18 08:44:15;;;;;;;14.48;2.67;;;6.80;99.90;;;;;;4932512;29;20034;-63
2022/01/18 08:46:42;;;;;;;13.13;4.95;;;6.80;99.90;;;;;;4946054;29;20032;-63
2022/01/18 08:49:08;;;;;;;12.27;3.85;;;6.80;99.90;;;;;;4945199;28;20433;-63
2022/01/18 08:51:34;;;;;;;9.25;4.13;;;6.80;99.90;;;;;;4948967;28;20077;-63
2022/01/18 08:54:01;;;;;;;4.40;2.28;;;6.90;99.90;;;;;;4950265;28;20024;-63
2022/01/18 08:56:27;;;;;;;14.43;5.82;;;6.90;99.90;;;;;;4947715;28;20024;-63
2022/01/18 08:58:52;;;;;;;11.52;4.60;;;6.90;99.90;;;;;;4947286;28;20042;-63
2022/01/18 09:01:18;;;;;;;13.02;2.30;;;6.90;99.90;;;;;;4947201;28;20492;-63
2022/01/18 09:03:44;;;;;;;10.45;2.85;;;7.00;99.90;;;;;;4946837;28;20092;-63
2022/01/18 09:06:16;;;;;;;14.00;4.68;;;6.90;99.90;;;;;;4950942;28;20046;-63
2022/01/18 09:08:42;;;;;;;6.13;2.75;;;6.90;99.90;;;;;;4945766;28;20023;-63
2022/01/18 09:11:11;;;;;;;7.32;2.10;;;6.90;99.90;;;;;;4944359;28;20044;-63
2022/01/18 09:13:37;;;;;;;12.20;4.25;;;7.00;99.90;;;;;;4949598;28;20027;-63
2022/01/18 09:16:05;;;;;;;12.50;3.58;;;6.80;99.90;;;;;;4947175;28;20107;-63
2022/01/18 09:18:32;;;;;;;13.32;3.15;;;6.90;99.90;;;;;;4952556;28;20054;-63
2022/01/18 09:20:58;;;;;;;9.30;3.35;;;7.00;99.90;;;;;;4929169;29;20028;-63
2022/01/18 09:23:23;;;;;;;13.35;4.30;;;7.10;99.90;;;;;;4949471;28;20110;-63
2022/01/18 09:25:49;;;;;;;9.80;4.03;;;7.10;99.90;;;;;;4949602;28;20078;-63
2022/01/18 09:28:15;;;;;;;6.90;2.92;;;7.20;99.90;;;;;;4943430;28;20052;-63
2022/01/18 09:30:41;;;;;;;15.65;4.10;;;7.30;99.90;;;;;;4946324;28;20785;-63
2022/01/18 09:33:07;;;;;;;8.30;3.88;;;7.40;99.90;;;;;;4944729;28;20553;-63
2022/01/18 09:35:34;;;;;;;11.85;4.13;;;7.30;99.90;;;;;;4946998;28;20023;-63
2022/01/18 09:38:00;;;;;;;12.30;4.60;;;7.40;99.90;;;;;;4943101;29;20035;-63
2022/01/18 09:40:26;;;;;;;12.18;3.53;;;7.40;99.90;;;;;;4947749;29;20114;-63
2022/01/18 09:42:56;;;;;;;9.13;2.60;;;7.50;99.90;;;;;;4947223;29;20501;-63
2022/01/18 09:45:25;;;;;;;8.77;3.60;;;7.50;99.90;;;;;;4944039;28;20075;-64
2022/01/18 09:47:53;;;;;;;16.25;3.25;;;7.60;99.90;;;;;;4948147;28;20031;-63
2022/01/18 09:50:29;;;;;;;11.25;3.28;;;7.50;99.90;;;;;;4946093;28;20023;-63
2022/01/18 09:52:56;;;;;;;9.68;2.78;;;7.40;99.90;;;;;;4950260;28;20518;-63
2022/01/18 09:55:25;;;;;;;21.48;3.90;;;7.60;99.90;;;;;;4949778;28;20027;-63
2022/01/18 09:57:54;;;;;;;19.70;3.55;;;7.70;99.90;;;;;;4942393;28;20019;-63
2022/01/18 10:00:21;;;;;;;6.65;2.72;;;7.90;99.90;;;;;;4946899;28;20046;-64
2022/01/18 10:02:48;;;;;;;8.40;3.25;;;7.90;99.90;;;;;;4947626;28;20402;-65
2022/01/18 10:05:34;;;;;;;13.75;4.22;;;8.10;99.90;;;;;;4947113;28;20021;-64
2022/01/18 10:08:10;;;;;;;13.88;3.95;;;8.10;99.90;;;;;;4946395;28;20114;-64
2022/01/18 10:10:40;;;;;;;22.33;3.30;;;8.10;99.90;;;;;;4948417;29;20551;-64
2022/01/18 10:13:08;;;;;;;11.05;3.95;;;8.10;99.90;;;;;;4949006;28;20022;-64
2022/01/18 10:15:34;;;;;;;5.68;2.45;;;8.20;99.90;;;;;;4946255;28;20023;-64
2022/01/18 10:18:08;;;;;;;19.60;4.38;;;8.30;99.90;;;;;;4945874;28;20083;-64
2022/01/18 10:20:49;;;;;;;9.50;3.35;;;8.20;99.90;;;;;;4949752;28;20035;-64
2022/01/18 10:23:24;;;;;;;6.85;3.05;;;8.20;99.90;;;;;;4930050;29;20110;-64
2022/01/18 10:25:51;;;;;;;9.98;3.40;;;8.20;99.90;;;;;;4952027;28;20051;-64
2022/01/18 10:28:34;;;;;;;11.80;3.92;;;8.20;99.90;;;;;;4953671;28;20067;-64
2022/01/18 10:31:05;;;;;;;11.43;3.08;;;8.20;99.90;;;;;;4948852;28;20032;-64
2022/01/18 10:33:37;;;;;;;6.95;2.95;;;8.10;99.90;;;;;;4951387;28;20082;-64
2022/01/18 10:36:09;;;;;;;11.98;2.97;;;8.20;99.90;;;;;;4945580;28;20059;-65
2022/01/18 10:38:34;;;;;;;10.45;3.67;;;8.30;99.90;;;;;;4945858;28;20495;-64
2022/01/18 10:41:28;;;;;;;13.60;3.25;;;8.40;99.90;;;;;;4947286;28;20079;-64
2022/01/18 10:44:15;;;;;;;8.38;3.50;;;8.50;99.90;;;;;;4943684;28;20038;-64
2022/01/18 10:46:54;;;;;;;8.38;3.17;;;8.60;99.90;;;;;;4943807;28;20020;-64
2022/01/18 10:49:39;;;;;;;10.65;3.13;;;8.60;99.90;;;;;;4923526;29;20031;-64
2022/01/18 10:52:14;;;;;;;10.13;3.58;;;8.70;99.90;;;;;;4941449;28;20107;-64
2022/01/18 10:54:51;;;;;;;10.30;2.65;;;8.80;99.90;;;;;;4945157;28;20539;-64
2022/01/18 10:57:24;;;;;;;7.53;3.03;;;8.90;99.90;;;;;;4942697;28;20027;-64
2022/01/18 11:00:21;;;;;;;16.65;3.35;;;9.00;99.90;;;;;;4952780;28;20581;-64
2022/01/18 11:02:50;;;;;;;6.28;2.42;;;8.80;99.90;;;;;;4953891;28;20055;-64
2022/01/18 11:05:29;;;;;;;5.65;2.13;;;8.80;99.90;;;;;;4947976;28;20375;-64
2022/01/18 11:07:56;;;;;;;13.07;3.50;;;8.90;99.90;;;;;;4946061;28;20050;-64
2022/01/18 11:10:30;;;;;;;12.18;4.18;;;9.00;99.90;;;;;;4950076;28;20034;-64
2022/01/18 11:13:04;;;;;;;15.60;4.72;;;8.90;99.90;;;;;;4945853;28;20023;-64
2022/01/18 11:15:32;;;;;;;12.18;3.67;;;8.70;99.90;;;;;;4949925;28;20023;-64
2022/01/18 11:18:00;;;;;;;9.10;3.47;;;8.80;99.90;;;;;;4951712;28;20707;-64
2022/01/18 11:20:29;;;;;;;16.05;3.63;;;8.80;99.90;;;;;;4947718;28;20027;-64
2022/01/18 11:22:56;;;;;;;9.90;3.97;;;8.80;99.90;;;;;;4937226;29;20034;-64
2022/01/18 11:25:22;;;;;;;8.68;3.33;;;8.80;99.90;;;;;;4948881;28;20086;-64
2022/01/18 11:27:51;;;;;;;13.50;3.25;;;8.70;99.90;;;;;;4952973;28;20044;-64
2022/01/18 11:30:24;;;;;;;13.77;3.75;;;8.70;99.90;;;;;;4943371;29;20019;-64
2022/01/18 11:32:53;;;;;;;16.13;4.03;;;8.70;99.90;;;;;;4930610;28;20542;-64
2022/01/18 11:35:25;;;;;;;17.83;2.92;;;8.90;99.90;;;;;;4955172;28;20521;-64
2022/01/18 11:37:54;;;;;;;16.00;3.70;;;8.90;99.90;;;;;;4945088;28;20527;-64
2022/01/18 11:40:20;;;;;;;6.90;2.10;;;9.10;99.90;;;;;;4948786;28;20035;-64
2022/01/18 11:43:03;;;;;;;7.82;1.98;;;9.40;99.90;;;;;;4948536;29;20035;-64
2022/01/18 11:45:31;;;;;;;9.63;2.42;;;9.80;99.90;;;;;;4946287;28;20117;-64
2022/01/18 11:48:13;;;;;;;8.52;2.95;;;10.00;99.90;;;;;;4937315;28;20043;-64
2022/01/18 11:50:44;;;;;;;7.30;2.63;;;10.20;99.90;;;;;;4946703;28;20024;-64
2022/01/18 11:53:23;;;;;;;10.20;3.03;;;10.40;99.90;;;;;;4950419;28;20007;-64
2022/01/18 11:55:49;;;;;;;5.40;2.00;;;10.50;99.90;;;;;;4950437;28;20062;-67
2022/01/18 11:58:15;;;;;;;10.13;2.65;;;10.90;99.90;;;;;;4947186;28;20047;-66
2022/01/18 12:00:51;;;;;;;8.98;2.50;;;10.20;99.90;;;;;;4944505;28;20031;-66
2022/01/18 12:03:20;;;;;;;7.88;2.53;;;10.10;99.90;;;;;;4942191;28;20046;-66
2022/01/18 12:05:46;;;;;;;11.15;2.75;;;10.30;99.90;;;;;;4945028;28;20059;-66
2022/01/18 12:08:32;;;;;;;8.30;2.20;;;10.10;99.90;;;;;;4948540;28;20088;-66
2022/01/18 12:10:58;;;;;;;9.10;2.47;;;10.00;99.90;;;;;;4940777;28;20819;-66
2022/01/18 12:13:29;;;;;;;5.65;2.10;;;10.10;99.90;;;;;;4946063;28;20090;-66
2022/01/18 12:15:57;;;;;;;3.15;1.63;;;10.40;99.90;;;;;;4942024;28;20102;-66
2022/01/18 12:18:26;;;;;;;6.43;2.30;;;10.90;99.90;;;;;;4944184;28;20035;-66
2022/01/18 12:21:00;;;;;;;8.45;2.50;;;10.60;99.90;;;;;;4948578;28;20063;-66
2022/01/18 12:23:43;;;;;;;10.40;3.90;;;10.60;99.90;;;;;;4941752;28;20460;-66
2022/01/18 12:34:35;;;;;;;8.88;2.08;;;11.10;99.90;;;;;;4946879;28;20035;-66
2022/01/18 12:37:27;;;;;;;10.80;2.47;;;12.10;99.90;;;;;;4942372;28;20213;-66
2022/01/18 12:40:08;;;;;;;11.40;2.97;;;11.70;99.90;;;;;;4945996;28;20319;-66
2022/01/18 12:45:15;;;;;;;8.18;2.65;;;11.20;99.90;;;;;;4949752;28;20027;-66
2022/01/18 12:47:46;;;;;;;2.90;1.60;;;11.10;99.90;;;;;;4948810;28;20019;-66
2022/01/18 12:50:14;;;;;;;21.77;3.45;;;10.00;99.90;;;;;;4951458;28;20488;-66
2022/01/18 12:53:02;;;;;;;11.93;2.78;;;10.00;99.90;;;;;;4949300;28;20102;-66
2022/01/18 12:55:41;;;;;;;12.15;3.58;;;9.70;99.90;;;;;;4953837;28;20034;-66
2022/01/18 12:58:14;;;;;;;9.50;3.17;;;9.50;99.90;;;;;;4948441;28;20166;-66
2022/01/18 13:00:44;;;;;;;19.40;3.95;;;9.40;99.90;;;;;;4949269;28;20031;-66
2022/01/18 13:03:09;;;;;;;10.50;3.03;;;9.20;99.90;;;;;;4947782;28;20054;-66
2022/01/18 13:05:41;;;;;;;5.50;1.77;;;9.20;99.90;;;;;;4949138;28;20047;-66
2022/01/18 13:08:09;;;;;;;5.93;2.10;;;9.20;99.90;;;;;;4931235;29;20027;-66
2022/01/18 13:10:36;;;;;;;13.38;2.38;;;9.20;99.90;;;;;;4950840;28;20484;-66
2022/01/18 13:13:03;;;;;;;9.15;2.83;;;9.00;99.90;;;;;;4955115;28;20169;-66
2022/01/18 13:24:27;;;;;;;13.45;2.97;;;8.90;99.90;;;;;;4950412;28;20047;-66
2022/01/18 13:26:52;;;;;;;9.73;2.80;;;8.80;99.90;;;;;;4937888;28;20392;-65
2022/01/18 13:29:22;;;;;;;11.07;2.70;;;8.60;99.90;;;;;;4944498;28;20039;-66
2022/01/18 13:35:03;;;;;;;12.88;4.10;;;8.30;99.90;;;;;;4947891;28;20027;-66
2022/01/18 13:37:33;;;;;;;12.15;3.35;;;8.40;99.90;;;;;;4947497;28;20134;-66
2022/01/18 13:40:02;;;;;;;13.15;3.55;;;8.30;99.90;;;;;;4949487;28;20036;-66
2022/01/18 13:42:35;;;;;;;8.75;3.10;;;8.30;99.90;;;;;;4949387;28;20106;-66
2022/01/18 13:45:17;;;;;;;13.82;3.83;;;8.20;99.90;;;;;;4951712;28;20107;-66
2022/01/18 13:47:52;;;;;;;6.65;3.17;;;8.20;99.90;;;;;;4950978;28;20054;-66
2022/01/18 13:50:35;;;;;;;12.05;3.70;;;8.20;99.90;;;;;;4944331;28;20020;-66
2022/01/18 13:53:05;;;;;;;15.40;3.92;;;8.30;99.90;;;;;;4945331;28;20081;-66
2022/01/18 13:55:31;;;;;;;11.40;3.75;;;8.40;99.90;;;;;;4947317;28;20106;-66
2022/01/18 13:57:58;;;;;;;14.25;4.28;;;8.50;99.90;;;;;;4946025;28;20170;-66
2022/01/18 14:00:25;;;;;;;14.73;4.63;;;8.60;99.90;;;;;;4943638;28;20042;-66
2022/01/18 14:02:51;;;;;;;14.57;3.17;;;8.50;99.90;;;;;;4943560;28;20031;-66
2022/01/18 14:05:20;;;;;;;15.85;4.30;;;8.40;99.90;;;;;;4949644;28;20039;-66
2022/01/18 14:07:46;;;;;;;11.50;4.55;;;8.50;99.90;;;;;;4947403;29;20421;-66
2022/01/18 14:10:12;;;;;;;11.90;3.83;;;8.60;99.90;;;;;;4943864;29;20158;-66
2022/01/18 14:12:37;;;;;;;13.90;3.92;;;8.60;99.90;;;;;;4946635;29;20515;-66
2022/01/18 14:15:04;;;;;;;28.60;3.90;;;8.60;99.90;;;;;;4943902;28;20102;-66
2022/01/18 14:17:29;;;;;;;15.35;3.20;;;8.80;99.90;;;;;;4947466;29;20042;-66
2022/01/18 14:20:15;;;;;;;12.55;3.83;;;8.80;99.90;;;;;;4939356;28;20027;-66
2022/01/18 14:22:41;;;;;;;17.52;3.85;;;8.80;99.90;;;;;;4941762;29;20667;-66
2022/01/18 14:25:07;;;;;;;17.30;3.53;;;8.90;99.90;;;;;;4946346;28;20102;-66
2022/01/18 14:27:39;;;;;;;9.50;4.15;;;8.80;99.90;;;;;;4945630;28;20519;-66
2022/01/18 14:30:08;;;;;;;16.10;4.40;;;8.90;99.90;;;;;;4943415;28;20027;-66
2022/01/18 14:32:42;;;;;;;10.90;4.03;;;8.90;99.90;;;;;;4946790;29;20515;-66
2022/01/18 14:35:22;;;;;;;11.82;3.80;;;8.90;99.90;;;;;;4943432;28;20472;-66
2022/01/18 14:37:50;;;;;;;13.68;4.05;;;8.80;99.90;;;;;;4945781;28;20086;-66
2022/01/18 14:40:27;;;;;;;12.60;3.10;;;8.70;99.90;;;;;;4941554;28;20059;-66
2022/01/18 14:42:58;;;;;;;14.73;4.10;;;8.70;99.90;;;;;;4941369;29;20045;-66